Latest Weather Observations for Bega

IDN60801

Issued at 7:02 am EST Monday 25 May 2015 (issued every 30 minutes, with the page automatically refreshed every 10 minutes)

About weather observations | Map of weather stations | Latest weather observations for NSW | Other Formats
Station Details ID: 069139 Name: BEGA AWS Lat: -36.67 Lon: 149.82 Height: 41.0 m
Data from the previous 72 hours. | See also: Recent months at Bega
Date/Time
EST
Temp
°C
App
Temp
°C
Dew
Point
Rel
Hum
%
Delta-T
°C
Wind Press
QNH
hPa
Press
MSL
hPa
Rain
since 9 am
mm
Dir
 
Spd
km/h
Gust
km/h
Spd
kts
Gust
kts
25/07:00am 0.6 -1.3 0.5 99 0.0 CALM 0 0 0 0 - - 0.0
25/06:30am 1.0 -0.8 0.9 99 0.0 CALM 0 0 0 0 - - 0.0
25/06:00am 1.1 -0.7 1.0 99 0.0 CALM 0 6 0 3 - - 0.0
25/05:30am 1.1 -0.7 1.0 99 0.0 CALM 0 0 0 0 - - 0.0
25/05:00am 1.0 -0.8 0.9 99 0.0 CALM 0 0 0 0 - - 0.0
25/04:30am 1.0 -0.8 0.9 99 0.0 CALM 0 0 0 0 - - 0.0
25/04:00am 1.4 -0.4 1.3 99 0.0 CALM 0 0 0 0 - - 0.0
25/03:30am 1.5 -0.3 1.4 99 0.0 CALM 0 0 0 0 - - 0.0
25/03:00am 1.5 -0.3 1.4 99 0.0 CALM 0 0 0 0 - - 0.0
25/02:30am 2.2 0.5 2.1 99 0.0 CALM 0 0 0 0 - - 0.0
25/02:00am 2.5 0.9 2.4 99 0.0 CALM 0 0 0 0 - - 0.0
25/01:30am 2.4 0.8 2.3 99 0.0 CALM 0 0 0 0 - - 0.0
25/01:00am 1.7 0.0 1.6 99 0.0 CALM 0 0 0 0 - - 0.0
25/12:30am 2.5 0.9 2.4 99 0.0 CALM 0 0 0 0 - - 0.0
25/12:00am 2.6 1.0 2.5 99 0.0 CALM 0 0 0 0 - - 0.0
 
Date/Time
EST
Temp
°C
App
Temp
°C
Dew
Point
Rel
Hum
%
Delta-T
°C
Wind Press
QNH
hPa
Press
MSL
hPa
Rain
since 9 am
mm
Dir
 
Spd
km/h
Gust
km/h
Spd
kts
Gust
kts
24/11:30pm 3.9 2.5 3.8 99 0.0 CALM 0 0 0 0 - - 0.0
24/11:00pm 4.4 3.1 4.3 99 0.0 CALM 0 0 0 0 - - 0.0
24/10:30pm 3.9 2.2 3.8 99 0.0 SSW 2 7 1 4 - - 0.0
24/10:00pm 4.3 3.0 3.9 97 0.2 CALM 0 0 0 0 - - 0.0
24/09:30pm 5.4 4.3 5.3 99 0.0 CALM 0 0 0 0 - - 0.0
24/09:00pm 5.9 4.9 5.6 98 0.1 CALM 0 0 0 0 - - 0.0
24/08:30pm 5.6 4.4 4.7 94 0.4 CALM 0 0 0 0 - - 0.0
24/08:00pm 6.1 5.0 5.1 93 0.4 CALM 0 0 0 0 - - 0.0
24/07:30pm 6.5 5.5 5.5 93 0.4 CALM 0 0 0 0 - - 0.0
24/07:00pm 7.2 6.2 5.7 90 0.7 CALM 0 0 0 0 - - 0.0
24/06:30pm 8.8 7.9 6.1 83 1.2 CALM 0 0 0 0 - - 0.0
24/06:00pm 10.0 9.2 6.5 79 1.6 CALM 0 0 0 0 - - 0.0
24/05:30pm 11.6 10.8 6.5 71 2.4 CALM 0 0 0 0 - - 0.0
24/05:00pm 12.8 12.0 6.6 66 3.0 CALM 0 0 0 0 - - 0.0
24/04:30pm 13.1 10.6 6.5 64 3.2 E 9 11 5 6 - - 0.0
24/04:00pm 15.3 13.8 6.8 57 4.2 ENE 4 7 2 4 - - 0.0
24/03:30pm 16.2 14.5 7.7 57 4.3 NE 6 7 3 4 - - 0.0
24/03:00pm 16.7 14.8 6.8 52 4.9 NNE 6 7 3 4 - - 0.0
24/02:30pm 16.9 15.5 7.3 53 4.8 NE 4 9 2 5 - - 0.0
24/02:00pm 16.4 14.9 8.4 59 4.1 NNE 6 9 3 5 - - 0.0
24/01:30pm 15.6 13.3 7.4 58 4.1 NE 9 11 5 6 - - 0.0
24/01:00pm 15.1 13.3 7.2 59 3.9 ENE 6 9 3 5 - - 0.0
24/12:30pm 14.3 13.0 7.8 65 3.2 SW 4 7 2 4 - - 0.0
24/12:00pm 13.5 12.0 8.4 71 2.5 NE 6 9 3 5 - - 0.0
24/11:30am 11.4 9.9 8.4 82 1.5 E 6 7 3 4 - - 0.0
24/11:00am 8.5 8.0 7.7 95 0.4 CALM 0 0 0 0 - - 0.0
24/10:30am 6.8 6.0 6.7 99 0.0 CALM 0 0 0 0 - - 0.0
24/10:00am 4.3 3.0 4.2 99 0.0 CALM 0 0 0 0 - - 0.0
24/09:30am 3.0 1.5 2.9 99 0.0 CALM 0 0 0 0 - - 0.0
24/09:00am 2.2 0.5 2.1 99 0.0 CALM 0 0 0 0 - - 0.2
24/08:30am 1.1 -0.7 1.0 99 0.0 CALM 0 0 0 0 - - 0.2
24/08:00am 0.5 -1.4 0.4 99 0.0 CALM 0 0 0 0 - - 0.2
24/07:30am -0.2 -3.4 -0.3 99 0.0 NW 6 9 3 5 - - 0.2
24/07:00am -0.4 -2.5 -0.5 99 0.0 CALM 0 0 0 0 - - 0.2
24/06:30am -0.2 -2.2 -0.3 99 0.0 CALM 0 0 0 0 - - 0.0
24/06:00am 0.4 -1.5 0.3 99 0.0 CALM 0 0 0 0 - - 0.0
24/05:30am 0.6 -1.3 0.5 99 0.0 CALM 0 2 0 1 - - 0.0
24/05:00am 0.5 -1.8 0.4 99 0.0 NNE 2 6 1 3 - - 0.0
24/04:30am 0.7 -1.2 0.6 99 0.0 CALM 0 0 0 0 - - 0.0
24/04:00am 1.5 -0.3 1.4 99 0.0 CALM 0 0 0 0 - - 0.0
24/03:30am 1.2 -1.0 1.1 99 0.0 NNE 2 6 1 3 - - 0.0
24/03:00am 1.4 -0.8 1.3 99 0.0 S 2 6 1 3 - - 0.0
24/02:30am 1.4 -2.1 1.3 99 0.0 SSW 9 11 5 6 - - 0.0
24/02:00am 1.5 -0.6 1.4 99 0.0 N 2 6 1 3 - - 0.0
24/01:30am 2.1 0.0 2.0 99 0.0 NW 2 9 1 5 - - 0.0
24/01:00am 2.4 0.4 2.3 99 0.0 SW 2 7 1 4 - - 0.0
24/12:30am 1.9 -0.9 1.8 99 0.0 S 6 7 3 4 - - 0.0
24/12:00am 1.9 0.2 1.8 99 0.0 CALM 0 0 0 0 - - 0.0
 
Date/Time
EST
Temp
°C
App
Temp
°C
Dew
Point
Rel
Hum
%
Delta-T
°C
Wind Press
QNH
hPa
Press
MSL
hPa
Rain
since 9 am
mm
Dir
 
Spd
km/h
Gust
km/h
Spd
kts
Gust
kts
23/11:30pm 2.5 0.9 2.4 99 0.0 CALM 0 0 0 0 - - 0.0
23/11:00pm 3.2 1.7 3.1 99 0.0 CALM 0 0 0 0 - - 0.0
23/10:30pm 4.1 2.8 4.0 99 0.0 CALM 0 0 0 0 - - 0.0
23/10:00pm 4.1 2.8 4.0 99 0.0 CALM 0 0 0 0 - - 0.0
23/09:30pm 4.1 2.7 3.7 97 0.2 CALM 0 0 0 0 - - 0.0
23/09:00pm 5.4 3.5 5.0 97 0.2 SSW 4 7 2 4 - - 0.0
23/08:30pm 5.7 4.6 5.0 95 0.3 CALM 0 0 0 0 - - 0.0
23/08:00pm 6.0 4.8 4.8 92 0.5 CALM 0 0 0 0 - - 0.0
23/07:30pm 6.6 5.6 5.6 93 0.4 CALM 0 0 0 0 - - 0.0
23/07:00pm 7.2 6.2 5.7 90 0.7 CALM 0 0 0 0 - - 0.0
23/06:30pm 8.6 6.9 5.9 83 1.2 NW 4 9 2 5 - - 0.0
23/06:00pm 9.9 7.9 6.1 77 1.8 NNW 6 9 3 5 - - 0.0
23/05:30pm 10.2 8.0 6.4 77 1.8 NNE 7 9 4 5 - - 0.0
23/05:00pm 11.9 10.0 6.6 70 2.5 ENE 6 7 3 4 - - 0.0
23/04:30pm 12.6 10.0 6.2 65 3.0 E 9 13 5 7 - - 0.0
23/04:00pm 13.3 10.0 6.2 62 3.4 ESE 13 17 7 9 - - 0.0
23/03:30pm 14.0 10.7 6.4 60 3.7 ESE 13 17 7 9 - - 0.0
23/03:00pm 15.7 13.9 3.5 44 5.6 ENE 2 7 1 4 - - 0.0
23/02:30pm 16.3 14.7 4.7 46 5.5 ENE 2 9 1 5 - - 0.0
23/02:00pm 16.1 13.6 3.5 43 5.8 NNE 6 9 3 5 - - 0.0
23/01:30pm 15.9 13.6 4.9 48 5.2 N 6 13 3 7 - - 0.0
23/01:00pm 15.2 12.5 5.7 53 4.5 NE 9 15 5 8 - - 0.0
23/12:30pm 14.7 12.2 4.7 51 4.7 ENE 7 11 4 6 - - 0.0
23/12:00pm 15.4 13.5 6.7 56 4.3 ESE 6 9 3 5 - - 0.0
23/11:30am 13.5 11.1 5.2 57 3.9 SE 7 9 4 5 - - 0.0
23/11:00am 12.8 11.3 5.0 59 3.6 SSW 2 9 1 5 - - 0.0
23/10:30am 11.8 10.5 6.1 68 2.7 NE 2 9 1 5 - - 0.0
23/10:00am 10.9 9.3 6.5 74 2.1 ENE 4 7 2 4 - - 0.0
23/09:30am 9.4 7.7 6.1 80 1.5 ENE 4 7 2 4 - - 0.0
23/09:00am 7.1 5.5 4.6 84 1.1 NNE 2 7 1 4 - - 0.0
23/08:30am 5.9 4.6 4.2 89 0.7 CALM 0 0 0 0 - - 0.0
23/08:00am 4.4 2.3 3.8 96 0.3 S 4 7 2 4 - - 0.0
23/07:30am 3.4 1.9 2.8 96 0.2 CALM 0 0 0 0 - - 0.0
23/07:00am 4.2 1.4 3.3 94 0.4 NW 7 9 4 5 - - 0.0
23/06:30am 4.5 2.6 3.0 90 0.6 SW 2 7 1 4 - - 0.0
23/06:00am 4.7 2.6 4.0 95 0.3 SSW 4 9 2 5 - - 0.0
23/05:30am 4.9 2.8 3.9 93 0.4 N 4 9 2 5 - - 0.0
23/05:00am 5.6 4.3 4.2 91 0.6 CALM 0 0 0 0 - - 0.0
23/04:30am 5.4 2.7 3.9 90 0.6 NE 7 9 4 5 - - 0.0
23/04:00am 7.3 3.6 4.4 82 1.3 SW 13 17 7 9 - - 0.0
23/03:30am 7.7 3.3 4.5 80 1.4 SW 17 20 9 11 - - 0.0
23/03:00am 7.3 3.7 4.9 85 1.1 SW 13 15 7 8 - - 0.0
23/02:30am 6.3 5.2 4.9 91 0.6 CALM 0 0 0 0 - - 0.0
23/02:00am 5.8 3.8 4.6 92 0.5 E 4 7 2 4 - - 0.0
23/01:30am 6.4 5.2 4.7 89 0.7 CALM 0 6 0 3 - - 0.0
23/01:00am 6.5 4.2 4.7 88 0.8 S 6 7 3 4 - - 0.0
23/12:30am 6.9 5.7 4.7 86 1.0 CALM 0 0 0 0 - - 0.0
23/12:00am 8.0 5.2 5.1 82 1.3 W 9 11 5 6 - - 0.0
 
Date/Time
EST
Temp
°C
App
Temp
°C
Dew
Point
Rel
Hum
%
Delta-T
°C
Wind Press
QNH
hPa
Press
MSL
hPa
Rain
since 9 am
mm
Dir
 
Spd
km/h
Gust
km/h
Spd
kts
Gust
kts
22/11:30pm 8.9 6.0 4.7 75 1.9 W 9 11 5 6 - - 0.0
22/11:00pm 9.5 6.3 4.9 73 2.1 W 11 15 6 8 - - 0.0
22/10:30pm 11.0 7.7 4.7 65 2.9 WSW 11 15 6 8 - - 0.0
22/10:00pm 10.8 7.1 4.5 65 2.8 WSW 13 17 7 9 - - 0.0
22/09:30pm 10.9 7.2 4.6 65 2.8 WSW 13 15 7 8 - - 0.0
22/09:00pm 10.8 6.4 4.9 67 2.7 SW 17 20 9 11 - - 0.0
22/08:30pm 11.1 6.3 5.4 68 2.6 SSW 20 28 11 15 - - 0.0
22/08:00pm 10.9 6.4 6.3 73 2.2 SW 19 24 10 13 - - 0.0
22/07:30pm 11.2 7.1 6.3 72 2.3 WSW 17 24 9 13 - - 0.0
22/07:00pm 11.5 6.9 6.6 72 2.3 SW 20 28 11 15 - - 0.0
22/06:30pm 11.5 8.0 7.2 75 2.1 SW 15 20 8 11 - - 0.0
22/06:00pm 11.9 7.7 7.6 75 2.1 SW 19 28 10 15 - - 0.0
22/05:30pm 11.9 8.2 8.0 77 1.9 SW 17 24 9 13 - - 0.0
22/05:00pm 12.4 8.4 8.3 76 2.0 SW 19 24 10 13 - - 0.0
22/04:30pm 12.9 9.1 9.0 77 2.0 SW 19 24 10 13 - - 0.0
22/04:00pm 14.0 9.9 8.8 71 2.6 SW 20 33 11 18 - - 0.0
22/03:30pm 14.5 11.7 9.9 74 2.4 S 15 22 8 12 - - 0.0
22/03:00pm 14.2 11.0 10.0 76 2.2 SSW 17 22 9 12 - - 0.0
22/02:41pm 13.6 8.1 9.1 74 2.3 SSW 28 44 15 24 - - 0.0
22/02:30pm 14.9 10.9 8.4 65 3.3 SSW 19 24 10 13 - - 0.0
22/02:00pm 14.7 9.7 8.0 64 3.3 SSW 24 37 13 20 - - 0.0
22/01:30pm 14.0 9.0 8.2 68 2.9 SSW 24 33 13 18 - - 0.0
22/01:00pm 14.4 10.0 9.0 70 2.8 SSW 22 32 12 17 - - 0.0
22/12:30pm 14.5 9.4 7.8 64 3.3 SSW 24 35 13 19 - - 0.0
22/12:00pm 14.8 10.1 7.6 62 3.6 SSW 22 32 12 17 - - 0.0
22/11:30am 14.8 9.5 6.9 59 3.9 SSW 24 35 13 19 - - 0.0
22/11:00am 14.5 9.1 7.8 64 3.3 SW 26 37 14 20 - - 0.0
22/10:30am 13.9 8.1 7.9 67 3.0 SW 28 35 15 19 - - 0.0
22/10:00am 13.7 7.6 8.1 69 2.8 SW 30 43 16 23 - - 0.0
22/09:30am 12.2 5.6 8.7 79 1.7 SW 33 43 18 23 - - 0.0
22/09:00am 11.7 7.4 9.3 85 1.2 SW 22 32 12 17 - - 0.0
22/08:30am 11.2 4.7 8.9 86 1.1 SW 33 43 18 23 - - 0.0
22/08:00am 12.2 5.6 7.7 74 2.2 SSW 32 44 17 24 - - 0.0
22/07:30am 12.7 7.2 7.6 71 2.5 SW 26 35 14 19 - - 0.0

Other Formats:

Comma delimited format used in spreadsheet applications
http://www.bom.gov.au/fwo/IDN60801/IDN60801.95931.axf

JavaScript Object Notation format (JSON) in row-major order
http://www.bom.gov.au/fwo/IDN60801/IDN60801.95931.json